createdAt,value
2022-08-11T00:01:24.625Z,89.00
2022-08-11T00:06:37.493Z,85.58
2022-08-11T00:11:44.766Z,83.45
2022-08-11T00:17:02.422Z,80.74
2022-08-11T00:22:06.523Z,78.25
2022-08-11T00:27:09.492Z,76.55
2022-08-11T00:32:17.515Z,75.26
2022-08-11T00:37:22.625Z,74.79
2022-08-11T00:43:00.295Z,74.59
2022-08-11T00:48:16.013Z,74.69
2022-08-11T00:53:47.272Z,74.28
2022-08-11T00:59:26.419Z,73.54
2022-08-11T01:05:04.620Z,72.03
2022-08-11T01:10:45.111Z,70.69
2022-08-11T01:16:09.675Z,68.46
2022-08-11T01:21:43.095Z,68.53
2022-08-11T01:27:00.633Z,69.36
2022-08-11T01:32:25.207Z,70.04
2022-08-11T01:37:43.398Z,70.32
2022-08-11T01:43:21.017Z,70.47
2022-08-11T01:48:43.042Z,70.80
2022-08-11T01:53:51.723Z,70.78
2022-08-11T01:59:19.249Z,70.94
2022-08-11T02:04:44.080Z,70.55
2022-08-11T02:09:55.785Z,70.36
2022-08-11T02:15:11.412Z,68.96
2022-08-11T02:21:16.982Z,67.93
2022-08-11T02:26:35.421Z,68.98
2022-08-11T02:32:11.076Z,69.26
2022-08-11T02:37:27.626Z,69.43
2022-08-11T02:42:45.874Z,69.26
2022-08-11T02:48:24.813Z,69.63
2022-08-11T02:53:37.898Z,69.78
2022-08-11T02:59:47.635Z,69.02
2022-08-11T03:05:07.689Z,68.59
2022-08-11T03:10:40.601Z,68.44
2022-08-11T03:16:11.238Z,68.06
2022-08-11T03:22:01.124Z,67.68
2022-08-11T03:26:55.351Z,67.59
2022-08-11T03:32:03.239Z,66.92
2022-08-11T03:37:43.095Z,65.37
2022-08-11T03:42:59.097Z,63.94
2022-08-11T03:48:21.702Z,63.54
2022-08-11T03:53:48.941Z,62.92
2022-08-11T03:59:13.154Z,62.64
2022-08-11T04:04:37.511Z,63.12
2022-08-11T04:10:11.097Z,62.43
2022-08-11T04:15:51.150Z,64.03
2022-08-11T04:21:30.604Z,65.87
2022-08-11T04:26:55.202Z,66.53
2022-08-11T04:32:01.004Z,66.48
2022-08-11T04:37:36.001Z,66.28
2022-08-11T04:43:21.575Z,66.30
2022-08-11T04:49:12.476Z,67.24
2022-08-11T04:55:08.031Z,66.71
2022-08-11T05:00:33.246Z,66.90
2022-08-11T05:05:56.340Z,65.96
2022-08-11T05:11:21.581Z,67.04
2022-08-11T05:16:48.574Z,68.06
2022-08-11T05:22:15.176Z,68.61
2022-08-11T05:27:38.981Z,69.17
2022-08-11T05:33:02.655Z,69.01
2022-08-11T05:38:30.457Z,68.35
2022-08-11T05:44:20.512Z,68.56
2022-08-11T05:49:34.399Z,68.78
2022-08-11T05:54:55.586Z,68.73
2022-08-11T06:00:10.757Z,68.21
2022-08-11T06:05:14.555Z,66.41
2022-08-11T06:10:30.575Z,65.39
2022-08-11T06:15:35.434Z,64.86
2022-08-11T06:20:48.109Z,64.68
2022-08-11T06:25:56.389Z,64.60
2022-08-11T06:31:00.041Z,64.78
2022-08-11T06:36:17.607Z,63.86
2022-08-11T06:41:49.674Z,64.22
2022-08-11T06:46:55.081Z,63.86
2022-08-11T06:52:04.559Z,63.86
2022-08-11T06:57:31.079Z,63.28
2022-08-11T07:03:01.162Z,62.86
2022-08-11T07:08:36.058Z,62.78
2022-08-11T07:13:58.386Z,62.81
2022-08-11T07:19:25.563Z,62.41
2022-08-11T07:25:12.283Z,62.32
2022-08-11T07:30:15.140Z,61.80
2022-08-11T07:35:28.864Z,61.67
2022-08-11T07:40:32.045Z,61.80
2022-08-11T07:45:53.151Z,61.32
2022-08-11T07:51:14.369Z,61.10
2022-08-11T07:56:21.899Z,60.54
2022-08-11T08:02:01.566Z,60.91
2022-08-11T08:07:24.304Z,59.95
2022-08-11T08:12:45.905Z,59.68
2022-08-11T08:18:09.106Z,59.16
2022-08-11T08:23:33.914Z,59.03
2022-08-11T08:28:37.094Z,58.71
2022-08-11T08:33:41.567Z,58.09
2022-08-11T08:38:50.831Z,57.20
2022-08-11T08:44:05.943Z,56.84
2022-08-11T08:49:24.321Z,55.91
2022-08-11T08:54:37.853Z,55.48
2022-08-11T08:59:48.920Z,55.72
2022-08-11T09:04:52.755Z,56.10
2022-08-11T09:09:58.128Z,55.80
2022-08-11T09:15:01.240Z,55.19
2022-08-11T09:20:13.820Z,56.02
2022-08-11T09:25:35.436Z,55.59
2022-08-11T09:30:43.105Z,55.84
2022-08-11T09:35:47.429Z,55.63
2022-08-11T09:40:52.926Z,55.76
2022-08-11T09:46:01.352Z,55.56
2022-08-11T09:51:04.860Z,55.76
2022-08-11T09:56:37.566Z,55.38
2022-08-11T10:02:03.687Z,54.84
2022-08-11T10:07:10.057Z,55.11
2022-08-11T10:12:17.544Z,54.55
2022-08-11T10:17:21.553Z,55.29
2022-08-11T10:22:43.233Z,55.38
2022-08-11T10:28:28.865Z,55.02
2022-08-11T10:33:37.960Z,54.15
2022-08-11T10:38:47.195Z,53.75
2022-08-11T10:44:01.122Z,53.97
2022-08-11T10:49:07.084Z,53.42
2022-08-11T10:54:28.690Z,53.44
2022-08-11T10:59:34.656Z,54.20
2022-08-11T11:04:53.793Z,53.74
2022-08-11T11:10:04.046Z,54.31
2022-08-11T11:15:25.993Z,56.03
2022-08-11T11:20:35.866Z,57.06
2022-08-11T11:26:06.978Z,57.46
2022-08-11T11:32:03.717Z,57.96
2022-08-11T11:37:06.787Z,57.20
2022-08-11T11:42:11.337Z,56.49
2022-08-11T11:47:14.826Z,55.96
2022-08-11T11:52:20.173Z,56.21
2022-08-11T11:57:41.683Z,56.96
2022-08-11T12:03:11.140Z,57.18
2022-08-11T12:08:17.821Z,56.78
2022-08-11T12:13:41.392Z,55.82
2022-08-11T12:18:48.255Z,56.25
2022-08-11T12:24:15.290Z,56.37
2022-08-11T12:29:20.271Z,57.09
2022-08-11T12:34:25.071Z,57.43
2022-08-11T12:40:15.644Z,57.48
2022-08-11T12:45:28.853Z,57.80
2022-08-11T12:50:50.371Z,56.98
2022-08-11T12:56:13.662Z,57.00
2022-08-11T13:01:35.868Z,57.67
2022-08-11T13:06:39.068Z,58.06
2022-08-11T13:12:00.836Z,58.46
2022-08-11T13:17:40.457Z,58.94
2022-08-11T13:22:50.731Z,57.82
2022-08-11T13:27:56.629Z,58.12
2022-08-11T13:33:05.273Z,58.41
2022-08-11T13:38:19.418Z,59.12
2022-08-11T13:43:24.066Z,60.66
2022-08-11T13:48:28.503Z,61.82
2022-08-11T13:53:33.802Z,62.33
2022-08-11T13:58:39.961Z,63.10
2022-08-11T14:04:31.313Z,63.87
2022-08-11T14:09:12.668Z,63.84
2022-08-11T14:14:22.021Z,64.03
2022-08-11T14:19:26.836Z,64.23
2022-08-11T14:24:34.516Z,64.47
2022-08-11T14:29:46.313Z,64.77
2022-08-11T14:34:51.854Z,65.18
2022-08-11T14:40:02.866Z,65.63
2022-08-11T14:45:57.524Z,65.73
2022-08-11T14:50:51.683Z,65.52
2022-08-11T14:56:13.689Z,65.81
2022-08-11T15:01:35.094Z,65.74
2022-08-11T15:06:38.122Z,66.16
2022-08-11T15:12:00.196Z,66.45
2022-08-11T15:17:09.386Z,67.12
2022-08-11T15:22:30.460Z,67.87
2022-08-11T15:27:52.805Z,68.70
2022-08-11T15:33:14.759Z,69.15
2022-08-11T15:38:19.055Z,69.66
2022-08-11T15:43:57.790Z,70.14
2022-08-11T15:49:04.285Z,70.42
2022-08-11T15:54:13.808Z,71.27
2022-08-11T15:59:41.959Z,71.54
2022-08-11T16:04:47.854Z,71.33
2022-08-11T16:09:54.145Z,71.12
2022-08-11T16:15:26.434Z,70.98
2022-08-11T16:20:30.024Z,70.96
2022-08-11T16:27:01.743Z,70.92
2022-08-11T16:30:59.908Z,71.08
2022-08-11T16:36:23.019Z,71.25
2022-08-11T16:41:48.047Z,70.93
2022-08-11T16:47:00.540Z,70.73
2022-08-11T16:52:05.765Z,70.69
2022-08-11T16:57:50.981Z,70.66
2022-08-11T17:03:13.032Z,70.41
2022-08-11T17:08:39.149Z,70.47
2022-08-11T17:13:52.823Z,70.30
2022-08-11T17:19:00.468Z,70.25
2022-08-11T17:24:14.688Z,70.39
2022-08-11T17:29:54.064Z,70.54
2022-08-11T17:35:22.040Z,70.17
2022-08-11T17:40:26.861Z,70.00
2022-08-11T17:46:02.102Z,70.14
2022-08-11T17:51:13.673Z,70.31
2022-08-11T17:56:35.227Z,70.64
2022-08-11T18:01:39.711Z,70.57
2022-08-11T18:06:44.556Z,70.98
2022-08-11T18:12:11.732Z,71.10
2022-08-11T18:17:33.782Z,71.43
2022-08-11T18:23:00.717Z,71.62
2022-08-11T18:28:24.601Z,72.29
2022-08-11T18:34:07.038Z,72.08
2022-08-11T18:39:31.889Z,72.09
2022-08-11T18:44:54.540Z,72.23
2022-08-11T18:50:18.135Z,72.06
2022-08-11T18:55:50.927Z,72.06
2022-08-11T19:01:15.591Z,71.70
2022-08-11T19:06:40.758Z,71.66
2022-08-11T19:12:04.811Z,71.81
2022-08-11T19:17:44.216Z,71.53
2022-08-11T19:23:07.812Z,72.06
2022-08-11T19:28:28.833Z,72.25
2022-08-11T19:34:00.356Z,71.88
2022-08-11T19:39:32.955Z,71.79
2022-08-11T19:44:54.626Z,71.94
2022-08-11T19:50:20.163Z,71.74
2022-08-11T19:55:46.411Z,71.83
2022-08-11T20:01:08.093Z,71.91
2022-08-11T20:06:31.250Z,71.87
2022-08-11T20:11:59.559Z,71.51
2022-08-11T20:17:22.165Z,71.30
2022-08-11T20:22:48.488Z,71.48
2022-08-11T20:28:11.175Z,71.62
2022-08-11T20:33:32.703Z,71.75
2022-08-11T20:38:54.262Z,71.61
2022-08-11T20:44:18.514Z,72.09
2022-08-11T20:49:48.689Z,72.22
2022-08-11T20:55:18.955Z,72.68
2022-08-11T21:00:47.631Z,73.03
2022-08-11T21:06:11.077Z,73.05
2022-08-11T21:11:34.635Z,73.40
2022-08-11T21:16:56.630Z,73.26
2022-08-11T21:22:20.392Z,73.45
2022-08-11T21:27:51.603Z,73.17
2022-08-11T21:33:13.700Z,72.97
2022-08-11T21:38:36.435Z,73.25
2022-08-11T21:43:59.357Z,73.62
2022-08-11T21:49:21.299Z,73.72
2022-08-11T21:54:43.975Z,74.06
2022-08-11T22:00:15.366Z,73.80
2022-08-11T22:05:38.284Z,74.09
2022-08-11T22:10:59.751Z,74.30
2022-08-11T22:16:21.322Z,74.49
2022-08-11T22:22:01.585Z,74.17
2022-08-11T22:27:25.058Z,74.44
2022-08-11T22:32:46.384Z,74.57
2022-08-11T22:38:08.275Z,74.50
2022-08-11T22:43:29.716Z,74.48
2022-08-11T22:48:51.767Z,74.14
2022-08-11T22:54:13.287Z,74.36
2022-08-11T22:59:35.762Z,74.40
2022-08-11T23:04:58.117Z,74.00
2022-08-11T23:10:19.124Z,73.82
2022-08-11T23:15:41.043Z,73.74
2022-08-11T23:21:04.996Z,73.54
2022-08-11T23:26:26.676Z,73.49
2022-08-11T23:31:53.476Z,72.92
2022-08-11T23:37:15.011Z,72.34
2022-08-11T23:42:36.316Z,72.34
2022-08-11T23:47:58.500Z,72.24
2022-08-11T23:53:20.808Z,72.00
2022-08-11T23:58:42.414Z,71.93
